Chitose — JD2925 — position and weather

sailwx.info

Track history (hours):
 
Tides and Currents Weather Stations Pressure Air Temp Water Temp Dewpoint Dewpoint Depression Visibility Wind Speed Wind Dir Waves Ship Positions

Chitose

Last reported at 2016-May-05 07:11 UTC. Time now 2016-May-05 19:57 UTC.
Position N 35°27' E 139°39'.

Length 33 m; draft 3.8 m.

Type: Tug. MMSI: 431000953.

Date/timePositionNaut miles runAvg speedWind from/ knotsBaromVisibWave heightAir tempDewpointWater temp
2016-May-05 07:11N 35°27' E 139°39'0 0.0
2016-May-05 06:33N 35°27' E 139°39'0 0.0
2016-May-05 05:34N 35°27' E 139°39'3 3.4
2016-May-05 04:34N 35°24' E 139°39'1 0.7
2016-May-05 03:34N 35°24' E 139°38'2 2.2
2016-May-05 02:33N 35°23' E 139°41'1 0.8
2016-May-05 01:33N 35°24' E 139°40'1 1.4
2016-May-05 00:34N 35°24' E 139°38'1 1.3
2016-May-04 23:34N 35°23' E 139°40'3 3.5
2016-May-04 22:33N 35°27' E 139°41'1 0.7
2016-May-04 21:33N 35°26' E 139°42'3 3.1
2016-May-04 20:33N 35°27' E 139°39'1 0.0
2016-May-04 08:33N 35°28' E 139°39'1 0.5
2016-May-04 07:33N 35°27' E 139°39'2 2.1
2016-May-04 06:33N 35°26' E 139°41'2 2.1
2016-May-04 05:33N 35°27' E 139°39'0 0.0
2016-May-04 04:33N 35°27' E 139°39'4 3.7
2016-May-04 03:33N 35°25' E 139°42'1 1.1
2016-May-04 02:33N 35°24' E 139°41'2 2.5
2016-May-04 01:33N 35°27' E 139°41'1 0.6
2016-May-04 00:33N 35°27' E 139°41'1 1.1
2016-May-03 23:33N 35°27' E 139°40'3 2.8
2016-May-03 22:33N 35°25' E 139°42'7 6.6
2016-May-03 21:33N 35°31' E 139°46'7 6.7
2016-May-03 20:33N 35°27' E 139°39'0 0.0
2016-May-03 06:32N 35°27' E 139°39'1 0.0
2016-May-02 06:33N 35°27' E 139°40'0 0.0
2016-May-02 05:33N 35°27' E 139°40'0 0.0
2016-May-02 04:33N 35°27' E 139°40'0 0.0
2016-May-02 03:33N 35°27' E 139°40'0 0.0
2016-May-02 02:33N 35°27' E 139°40'0 0.0
2016-May-02 01:33N 35°27' E 139°40'0 0.0
2016-May-02 00:33N 35°27' E 139°40'3 2.5
2016-May-01 23:33N 35°29' E 139°42'3 3.4
2016-May-01 22:33N 35°30' E 139°45'3 3.1
2016-May-01 21:33N 35°28' E 139°43'3 3.2
2016-May-01 20:33N 35°27' E 139°40'0 0.0
2016-May-01 07:34N 35°27' E 139°40'2 2.1
2016-May-01 06:33N 35°26' E 139°42'4 4.3
2016-May-01 05:33N 35°28' E 139°47'2 2.1
2016-May-01 04:33N 35°28' E 139°44'3 3.3
2016-May-01 03:33N 35°28' E 139°40'0 0.0
2016-May-01 02:33N 35°28' E 139°40'1 0.7
2016-May-01 01:33N 35°27' E 139°41'3 2.9
2016-May-01 00:33N 35°24' E 139°40'2 2.1
2016-Apr-30 23:33N 35°25' E 139°42'3 3.4
2016-Apr-30 22:33N 35°27' E 139°39'0 0.0
2016-Apr-29 23:10N 35°27' E 139°40'2 3.1
2016-Apr-29 22:33N 35°25' E 139°41'1 1.2
2016-Apr-29 21:33N 35°25' E 139°42'3 3.2
2016-Apr-29 20:33N 35°27' E 139°39'0 0.0
2016-Apr-29 19:33N 35°27' E 139°39'0 0.0
2016-Apr-29 18:33N 35°27' E 139°39'0 0.0
2016-Apr-29 17:33N 35°27' E 139°39'0 0.0
2016-Apr-29 16:33N 35°27' E 139°39'0 0.0
2016-Apr-29 15:33N 35°27' E 139°39'1 1.0
2016-Apr-29 14:33N 35°27' E 139°41'1 0.7
2016-Apr-29 13:33N 35°26' E 139°41'1 1.5
2016-Apr-29 12:33N 35°27' E 139°39'0 0.0
2016-Apr-29 11:33N 35°27' E 139°39'0 0.0
2016-Apr-29 10:33N 35°27' E 139°39'1 0.8
2016-Apr-29 09:33N 35°27' E 139°40'1 1.2
2016-Apr-29 08:33N 35°27' E 139°42'1 0.6
2016-Apr-29 07:34N 35°27' E 139°41'1 1.2
2016-Apr-29 06:33N 35°26' E 139°42'2 1.8
2016-Apr-29 05:34N 35°27' E 139°40'1 0.7
2016-Apr-29 04:33N 35°27' E 139°39'0 0.0
2016-Apr-29 03:33N 35°27' E 139°39'0 0.0
2016-Apr-29 02:33N 35°27' E 139°39'0 0.0
2016-Apr-29 01:33N 35°27' E 139°39'0 0.0
2016-Apr-29 00:33N 35°27' E 139°39'1 1.2
2016-Apr-28 23:33N 35°27' E 139°41'1 1.1
2016-Apr-28 22:33N 35°26' E 139°42'1 1.2
2016-Apr-28 21:33N 35°25' E 139°41'2 0.2
2016-Apr-28 10:34N 35°27' E 139°40'3 2.5
2016-Apr-28 09:34N 35°26' E 139°42'1 0.6
2016-Apr-28 08:34N 35°27' E 139°43'3 2.6
2016-Apr-28 07:34N 35°27' E 139°39'1 0.8
2016-Apr-28 06:34N 35°27' E 139°40'0 0.4
2016-Apr-28 05:33N 35°27' E 139°41'1 1.2
2016-Apr-28 04:34N 35°27' E 139°40'0 0.0
2016-Apr-28 03:34N 35°27' E 139°40'0 0.0
2016-Apr-28 02:34N 35°27' E 139°40'0 0.0
2016-Apr-28 01:33N 35°27' E 139°40'0 0.0
2016-Apr-28 00:33N 35°27' E 139°40'0 0.0
2016-Apr-27 23:34N 35°27' E 139°40'0 0.0
2016-Apr-27 22:33N 35°27' E 139°40'1 0.1
2016-Apr-26 22:34N 35°27' E 139°41'2 2.2
2016-Apr-26 21:34N 35°26' E 139°43'2 1.6
2016-Apr-26 20:34N 35°24' E 139°42'1 0.9
2016-Apr-26 19:34N 35°24' E 139°41'1 0.7
2016-Apr-26 18:33N 35°24' E 139°40'0 0.3
2016-Apr-26 17:34N 35°24' E 139°40'0 0.0
2016-Apr-26 16:34N 35°24' E 139°40'0 0.0
2016-Apr-26 15:34N 35°24' E 139°40'0 0.0
2016-Apr-26 14:34N 35°24' E 139°40'3 3.0
2016-Apr-26 13:34N 35°26' E 139°41'1 1.2
2016-Apr-26 12:34N 35°28' E 139°40'1 0.6
2016-Apr-26 11:34N 35°27' E 139°40'0 0.0
2016-Apr-26 10:34N 35°27' E 139°40'0 0.1
2016-Apr-26 09:34N 35°27' E 139°40'1 1.1
2016-Apr-26 08:33N 35°26' E 139°41'0 0.1
2016-Apr-26 07:33N 35°26' E 139°41'1 1.3
2016-Apr-26 06:34N 35°27' E 139°40'  
Track history (hours):
 
Tides and Currents Weather Stations Pressure Air Temp Water Temp Dewpoint Dewpoint Depression Visibility Wind Speed Wind Dir Waves Ship Positions

Chitose

Last reported at 2016-May-05 07:11 UTC. Time now 2016-May-05 19:57 UTC.
Position N 35°27' E 139°39'.

Length 33 m; draft 3.8 m.

Type: Tug. MMSI: 431000953.

Date/timePositionNaut miles runAvg speedWind from/ knotsBaromVisibWave heightAir tempDewpointWater temp
2016-May-05 07:11N 35°27' E 139°39'0 0.0
2016-May-05 06:33N 35°27' E 139°39'0 0.0
2016-May-05 05:34N 35°27' E 139°39'3 3.4
2016-May-05 04:34N 35°24' E 139°39'1 0.7
2016-May-05 03:34N 35°24' E 139°38'2 2.2
2016-May-05 02:33N 35°23' E 139°41'1 0.8
2016-May-05 01:33N 35°24' E 139°40'1 1.4
2016-May-05 00:34N 35°24' E 139°38'1 1.3
2016-May-04 23:34N 35°23' E 139°40'3 3.5
2016-May-04 22:33N 35°27' E 139°41'1 0.7
2016-May-04 21:33N 35°26' E 139°42'3 3.1
2016-May-04 20:33N 35°27' E 139°39'1 0.0
2016-May-04 08:33N 35°28' E 139°39'1 0.5
2016-May-04 07:33N 35°27' E 139°39'2 2.1
2016-May-04 06:33N 35°26' E 139°41'2 2.1
2016-May-04 05:33N 35°27' E 139°39'0 0.0
2016-May-04 04:33N 35°27' E 139°39'4 3.7
2016-May-04 03:33N 35°25' E 139°42'1 1.1
2016-May-04 02:33N 35°24' E 139°41'2 2.5
2016-May-04 01:33N 35°27' E 139°41'1 0.6
2016-May-04 00:33N 35°27' E 139°41'1 1.1
2016-May-03 23:33N 35°27' E 139°40'3 2.8
2016-May-03 22:33N 35°25' E 139°42'7 6.6
2016-May-03 21:33N 35°31' E 139°46'7 6.7
2016-May-03 20:33N 35°27' E 139°39'0 0.0
2016-May-03 06:32N 35°27' E 139°39'1 0.0
2016-May-02 06:33N 35°27' E 139°40'0 0.0
2016-May-02 05:33N 35°27' E 139°40'0 0.0
2016-May-02 04:33N 35°27' E 139°40'0 0.0
2016-May-02 03:33N 35°27' E 139°40'0 0.0
2016-May-02 02:33N 35°27' E 139°40'0 0.0
2016-May-02 01:33N 35°27' E 139°40'0 0.0
2016-May-02 00:33N 35°27' E 139°40'3 2.5
2016-May-01 23:33N 35°29' E 139°42'3 3.4
2016-May-01 22:33N 35°30' E 139°45'3 3.1
2016-May-01 21:33N 35°28' E 139°43'3 3.2
2016-May-01 20:33N 35°27' E 139°40'0 0.0
2016-May-01 07:34N 35°27' E 139°40'2 2.1
2016-May-01 06:33N 35°26' E 139°42'4 4.3
2016-May-01 05:33N 35°28' E 139°47'2 2.1
2016-May-01 04:33N 35°28' E 139°44'3 3.3
2016-May-01 03:33N 35°28' E 139°40'0 0.0
2016-May-01 02:33N 35°28' E 139°40'1 0.7
2016-May-01 01:33N 35°27' E 139°41'3 2.9
2016-May-01 00:33N 35°24' E 139°40'2 2.1
2016-Apr-30 23:33N 35°25' E 139°42'3 3.4
2016-Apr-30 22:33N 35°27' E 139°39'0 0.0
2016-Apr-29 23:10N 35°27' E 139°40'2 3.1
2016-Apr-29 22:33N 35°25' E 139°41'1 1.2
2016-Apr-29 21:33N 35°25' E 139°42'3 3.2
2016-Apr-29 20:33N 35°27' E 139°39'0 0.0
2016-Apr-29 19:33N 35°27' E 139°39'0 0.0
2016-Apr-29 18:33N 35°27' E 139°39'0 0.0
2016-Apr-29 17:33N 35°27' E 139°39'0 0.0
2016-Apr-29 16:33N 35°27' E 139°39'0 0.0
2016-Apr-29 15:33N 35°27' E 139°39'1 1.0
2016-Apr-29 14:33N 35°27' E 139°41'1 0.7
2016-Apr-29 13:33N 35°26' E 139°41'1 1.5
2016-Apr-29 12:33N 35°27' E 139°39'0 0.0
2016-Apr-29 11:33N 35°27' E 139°39'0 0.0
2016-Apr-29 10:33N 35°27' E 139°39'1 0.8
2016-Apr-29 09:33N 35°27' E 139°40'1 1.2
2016-Apr-29 08:33N 35°27' E 139°42'1 0.6
2016-Apr-29 07:34N 35°27' E 139°41'1 1.2
2016-Apr-29 06:33N 35°26' E 139°42'2 1.8
2016-Apr-29 05:34N 35°27' E 139°40'1 0.7
2016-Apr-29 04:33N 35°27' E 139°39'0 0.0
2016-Apr-29 03:33N 35°27' E 139°39'0 0.0
2016-Apr-29 02:33N 35°27' E 139°39'0 0.0
2016-Apr-29 01:33N 35°27' E 139°39'0 0.0
2016-Apr-29 00:33N 35°27' E 139°39'1 1.2
2016-Apr-28 23:33N 35°27' E 139°41'1 1.1
2016-Apr-28 22:33N 35°26' E 139°42'1 1.2
2016-Apr-28 21:33N 35°25' E 139°41'2 0.2
2016-Apr-28 10:34N 35°27' E 139°40'3 2.5
2016-Apr-28 09:34N 35°26' E 139°42'1 0.6
2016-Apr-28 08:34N 35°27' E 139°43'3 2.6
2016-Apr-28 07:34N 35°27' E 139°39'1 0.8
2016-Apr-28 06:34N 35°27' E 139°40'0 0.4
2016-Apr-28 05:33N 35°27' E 139°41'1 1.2
2016-Apr-28 04:34N 35°27' E 139°40'0 0.0
2016-Apr-28 03:34N 35°27' E 139°40'0 0.0
2016-Apr-28 02:34N 35°27' E 139°40'0 0.0
2016-Apr-28 01:33N 35°27' E 139°40'0 0.0
2016-Apr-28 00:33N 35°27' E 139°40'0 0.0
2016-Apr-27 23:34N 35°27' E 139°40'0 0.0
2016-Apr-27 22:33N 35°27' E 139°40'1 0.1
2016-Apr-26 22:34N 35°27' E 139°41'2 2.2
2016-Apr-26 21:34N 35°26' E 139°43'2 1.6
2016-Apr-26 20:34N 35°24' E 139°42'1 0.9
2016-Apr-26 19:34N 35°24' E 139°41'1 0.7
2016-Apr-26 18:33N 35°24' E 139°40'0 0.3
2016-Apr-26 17:34N 35°24' E 139°40'0 0.0
2016-Apr-26 16:34N 35°24' E 139°40'0 0.0
2016-Apr-26 15:34N 35°24' E 139°40'0 0.0
2016-Apr-26 14:34N 35°24' E 139°40'3 3.0
2016-Apr-26 13:34N 35°26' E 139°41'1 1.2
2016-Apr-26 12:34N 35°28' E 139°40'1 0.6
2016-Apr-26 11:34N 35°27' E 139°40'0 0.0
2016-Apr-26 10:34N 35°27' E 139°40'0 0.1
2016-Apr-26 09:34N 35°27' E 139°40'1 1.1
2016-Apr-26 08:33N 35°26' E 139°41'0 0.1
2016-Apr-26 07:33N 35°26' E 139°41'1 1.3
2016-Apr-26 06:34N 35°27' E 139°40'  

Dump ship's entire track history